Flight NumberIPW144 Date11.01.2019
Departure AirportOIII Arrival AirportOIMM
Departure Time8.29Arrival Time9.46
Pilot In CommandNaser Ghafari Block Time1.30 Hours
Pilot Rating100 % AircraftEP-CBK [ 737-400 ]


Distance406.00 Nm. Passengers135
Fuel Used3,314 Kg. Cargo1625 Kg
Expense Details Income Details
Fuel Cost2,679 v$Ticket Sales29,700 v$
Pilot Salary4,424 v$ Cargo income5,867.00 v$
Crew Salary675 v$ Bonus7,373 v$
Gross Profit39,816 v$ ( 995,400 v$ )

Client Versionv2.2.1 Max Simrate1
Flight Critique Pilot CommentsOIMM 111730Z 14004KT CAVOK 01/00 Q1025 A3030